sensor_id;sensor_type;location;lat;lon;timestamp;P1;durP1;ratioP1;P2;durP2;ratioP2
22320;SDS011;11328;53.928;18.522;2022-11-20T00:01:30;57.55;;;31.25;;
22320;SDS011;11328;53.928;18.522;2022-11-20T00:03:57;53.00;;;30.67;;
22320;SDS011;11328;53.928;18.522;2022-11-20T00:06:26;51.95;;;29.98;;
22320;SDS011;11328;53.928;18.522;2022-11-20T00:08:55;54.78;;;31.02;;
22320;SDS011;11328;53.928;18.522;2022-11-20T00:11:25;55.47;;;30.42;;
22320;SDS011;11328;53.928;18.522;2022-11-20T00:25:19;59.75;;;35.42;;
22320;SDS011;11328;53.928;18.522;2022-11-20T00:27:46;55.10;;;32.85;;
22320;SDS011;11328;53.928;18.522;2022-11-20T00:30:13;55.05;;;31.65;;
22320;SDS011;11328;53.928;18.522;2022-11-20T00:32:40;56.95;;;31.73;;
22320;SDS011;11328;53.928;18.522;2022-11-20T00:35:07;57.10;;;32.75;;
22320;SDS011;11328;53.928;18.522;2022-11-20T00:37:34;55.60;;;32.60;;
22320;SDS011;11328;53.928;18.522;2022-11-20T00:40:01;54.10;;;30.60;;
22320;SDS011;11328;53.928;18.522;2022-11-20T00:42:28;51.78;;;30.02;;
22320;SDS011;11328;53.928;18.522;2022-11-20T00:44:57;55.15;;;30.75;;
22320;SDS011;11328;53.928;18.522;2022-11-20T00:47:24;58.83;;;31.95;;
22320;SDS011;11328;53.928;18.522;2022-11-20T00:49:51;59.67;;;30.83;;
22320;SDS011;11328;53.928;18.522;2022-11-20T00:52:17;55.00;;;30.30;;
22320;SDS011;11328;53.928;18.522;2022-11-20T00:54:44;58.83;;;32.67;;
22320;SDS011;11328;53.928;18.522;2022-11-20T00:57:11;57.95;;;32.53;;
22320;SDS011;11328;53.928;18.522;2022-11-20T00:59:38;58.85;;;31.38;;
22320;SDS011;11328;53.928;18.522;2022-11-20T01:02:05;56.58;;;31.00;;
22320;SDS011;11328;53.928;18.522;2022-11-20T01:04:32;56.80;;;31.23;;
22320;SDS011;11328;53.928;18.522;2022-11-20T01:06:59;55.95;;;30.80;;
22320;SDS011;11328;53.928;18.522;2022-11-20T01:09:26;54.53;;;28.63;;
22320;SDS011;11328;53.928;18.522;2022-11-20T01:11:53;56.17;;;30.83;;
22320;SDS011;11328;53.928;18.522;2022-11-20T01:14:20;53.33;;;29.45;;
22320;SDS011;11328;53.928;18.522;2022-11-20T01:16:48;52.38;;;29.33;;
22320;SDS011;11328;53.928;18.522;2022-11-20T01:19:19;51.83;;;28.73;;
22320;SDS011;11328;53.928;18.522;2022-11-20T01:21:50;56.42;;;29.27;;
22320;SDS011;11328;53.928;18.522;2022-11-20T01:24:20;51.65;;;28.20;;
22320;SDS011;11328;53.928;18.522;2022-11-20T01:26:49;53.67;;;28.65;;
22320;SDS011;11328;53.928;18.522;2022-11-20T01:29:21;53.35;;;29.50;;
22320;SDS011;11328;53.928;18.522;2022-11-20T01:31:50;53.63;;;30.80;;
22320;SDS011;11328;53.928;18.522;2022-11-20T01:34:19;59.13;;;29.02;;
22320;SDS011;11328;53.928;18.522;2022-11-20T01:36:48;51.25;;;28.42;;
22320;SDS011;11328;53.928;18.522;2022-11-20T01:39:17;51.13;;;28.95;;
22320;SDS011;11328;53.928;18.522;2022-11-20T01:41:48;51.65;;;28.73;;
22320;SDS011;11328;53.928;18.522;2022-11-20T01:50:03;52.05;;;27.67;;
22320;SDS011;11328;53.928;18.522;2022-11-20T01:52:50;53.08;;;28.05;;
22320;SDS011;11328;53.928;18.522;2022-11-20T01:55:24;52.63;;;27.77;;
22320;SDS011;11328;53.928;18.522;2022-11-20T01:57:57;52.45;;;28.77;;
22320;SDS011;11328;53.928;18.522;2022-11-20T02:00:25;50.28;;;27.52;;
22320;SDS011;11328;53.928;18.522;2022-11-20T02:03:00;52.28;;;27.83;;
22320;SDS011;11328;53.928;18.522;2022-11-20T02:05:37;54.15;;;28.13;;
22320;SDS011;11328;53.928;18.522;2022-11-20T02:08:15;56.47;;;31.15;;
22320;SDS011;11328;53.928;18.522;2022-11-20T02:10:44;56.60;;;29.92;;
22320;SDS011;11328;53.928;18.522;2022-11-20T02:13:11;57.72;;;30.35;;
22320;SDS011;11328;53.928;18.522;2022-11-20T02:15:56;53.17;;;28.63;;
22320;SDS011;11328;53.928;18.522;2022-11-20T02:18:23;50.75;;;28.20;;
22320;SDS011;11328;53.928;18.522;2022-11-20T02:20:53;50.20;;;28.25;;
22320;SDS011;11328;53.928;18.522;2022-11-20T02:23:30;49.30;;;27.33;;
22320;SDS011;11328;53.928;18.522;2022-11-20T02:26:11;52.38;;;28.55;;
22320;SDS011;11328;53.928;18.522;2022-11-20T02:28:43;48.63;;;27.90;;
22320;SDS011;11328;53.928;18.522;2022-11-20T02:31:10;50.42;;;28.95;;
22320;SDS011;11328;53.928;18.522;2022-11-20T02:33:37;51.75;;;29.13;;
22320;SDS011;11328;53.928;18.522;2022-11-20T02:36:04;48.70;;;28.27;;
22320;SDS011;11328;53.928;18.522;2022-11-20T02:38:31;56.95;;;31.90;;
22320;SDS011;11328;53.928;18.522;2022-11-20T02:40:58;55.22;;;31.08;;
22320;SDS011;11328;53.928;18.522;2022-11-20T02:43:25;54.58;;;30.35;;
22320;SDS011;11328;53.928;18.522;2022-11-20T02:45:52;53.15;;;30.52;;
22320;SDS011;11328;53.928;18.522;2022-11-20T02:48:19;55.75;;;29.60;;
22320;SDS011;11328;53.928;18.522;2022-11-20T02:50:49;50.72;;;28.70;;
22320;SDS011;11328;53.928;18.522;2022-11-20T02:53:16;50.78;;;29.55;;
22320;SDS011;11328;53.928;18.522;2022-11-20T02:55:43;50.75;;;28.80;;
22320;SDS011;11328;53.928;18.522;2022-11-20T02:58:10;54.35;;;30.60;;
22320;SDS011;11328;53.928;18.522;2022-11-20T03:00:40;56.63;;;30.45;;
22320;SDS011;11328;53.928;18.522;2022-11-20T03:03:07;52.78;;;29.55;;
22320;SDS011;11328;53.928;18.522;2022-11-20T03:05:34;52.92;;;29.70;;
22320;SDS011;11328;53.928;18.522;2022-11-20T03:08:01;53.13;;;29.35;;
22320;SDS011;11328;53.928;18.522;2022-11-20T03:10:28;47.85;;;27.33;;
22320;SDS011;11328;53.928;18.522;2022-11-20T03:12:55;48.72;;;28.15;;
22320;SDS011;11328;53.928;18.522;2022-11-20T03:15:22;46.95;;;27.98;;
22320;SDS011;11328;53.928;18.522;2022-11-20T03:17:52;48.35;;;27.10;;
22320;SDS011;11328;53.928;18.522;2022-11-20T03:20:21;48.70;;;28.33;;
22320;SDS011;11328;53.928;18.522;2022-11-20T03:22:49;54.60;;;27.77;;
22320;SDS011;11328;53.928;18.522;2022-11-20T03:25:16;46.20;;;26.15;;
22320;SDS011;11328;53.928;18.522;2022-11-20T03:27:43;62.75;;;36.13;;
22320;SDS011;11328;53.928;18.522;2022-11-20T03:30:10;47.15;;;27.40;;
22320;SDS011;11328;53.928;18.522;2022-11-20T03:32:37;53.05;;;27.73;;
22320;SDS011;11328;53.928;18.522;2022-11-20T03:35:04;50.78;;;27.40;;
22320;SDS011;11328;53.928;18.522;2022-11-20T03:37:32;50.40;;;27.73;;
22320;SDS011;11328;53.928;18.522;2022-11-20T03:39:59;46.80;;;26.33;;
22320;SDS011;11328;53.928;18.522;2022-11-20T03:42:26;51.20;;;27.30;;
22320;SDS011;11328;53.928;18.522;2022-11-20T03:45:12;50.35;;;26.95;;
22320;SDS011;11328;53.928;18.522;2022-11-20T03:47:44;52.15;;;28.38;;
22320;SDS011;11328;53.928;18.522;2022-11-20T03:50:12;56.50;;;28.77;;
22320;SDS011;11328;53.928;18.522;2022-11-20T03:52:40;53.80;;;28.45;;
22320;SDS011;11328;53.928;18.522;2022-11-20T03:55:07;50.00;;;27.83;;
22320;SDS011;11328;53.928;18.522;2022-11-20T03:57:34;58.35;;;29.27;;
22320;SDS011;11328;53.928;18.522;2022-11-20T04:00:02;55.25;;;28.75;;
22320;SDS011;11328;53.928;18.522;2022-11-20T04:02:31;53.92;;;29.33;;
22320;SDS011;11328;53.928;18.522;2022-11-20T04:16:21;59.78;;;34.00;;
22320;SDS011;11328;53.928;18.522;2022-11-20T04:18:53;53.20;;;30.27;;
22320;SDS011;11328;53.928;18.522;2022-11-20T04:21:23;51.60;;;28.65;;
22320;SDS011;11328;53.928;18.522;2022-11-20T04:23:51;54.97;;;29.63;;
22320;SDS011;11328;53.928;18.522;2022-11-20T04:26:20;54.78;;;29.90;;
22320;SDS011;11328;53.928;18.522;2022-11-20T04:28:50;51.47;;;28.48;;
22320;SDS011;11328;53.928;18.522;2022-11-20T04:31:18;49.90;;;27.70;;
22320;SDS011;11328;53.928;18.522;2022-11-20T04:33:53;52.33;;;28.50;;
22320;SDS011;11328;53.928;18.522;2022-11-20T04:36:22;56.75;;;29.27;;
22320;SDS011;11328;53.928;18.522;2022-11-20T04:38:54;53.97;;;29.47;;
22320;SDS011;11328;53.928;18.522;2022-11-20T04:41:28;52.45;;;28.40;;
22320;SDS011;11328;53.928;18.522;2022-11-20T04:43:59;54.63;;;28.88;;
22320;SDS011;11328;53.928;18.522;2022-11-20T04:46:33;59.47;;;28.80;;
22320;SDS011;11328;53.928;18.522;2022-11-20T04:49:04;55.50;;;28.85;;
22320;SDS011;11328;53.928;18.522;2022-11-20T04:51:31;53.92;;;29.23;;
22320;SDS011;11328;53.928;18.522;2022-11-20T04:53:59;54.55;;;29.25;;
22320;SDS011;11328;53.928;18.522;2022-11-20T04:56:26;55.58;;;29.30;;
22320;SDS011;11328;53.928;18.522;2022-11-20T04:58:54;58.22;;;30.35;;
22320;SDS011;11328;53.928;18.522;2022-11-20T05:01:21;56.22;;;28.85;;
22320;SDS011;11328;53.928;18.522;2022-11-20T05:03:50;51.90;;;29.02;;
22320;SDS011;11328;53.928;18.522;2022-11-20T05:06:18;59.17;;;30.42;;
22320;SDS011;11328;53.928;18.522;2022-11-20T05:08:47;55.08;;;28.27;;
22320;SDS011;11328;53.928;18.522;2022-11-20T05:11:15;54.83;;;29.05;;
22320;SDS011;11328;53.928;18.522;2022-11-20T05:13:46;56.15;;;29.73;;
22320;SDS011;11328;53.928;18.522;2022-11-20T05:16:18;56.58;;;28.48;;
22320;SDS011;11328;53.928;18.522;2022-11-20T05:18:49;60.05;;;33.20;;
22320;SDS011;11328;53.928;18.522;2022-11-20T05:21:20;54.72;;;27.67;;
22320;SDS011;11328;53.928;18.522;2022-11-20T05:23:47;64.05;;;28.63;;
22320;SDS011;11328;53.928;18.522;2022-11-20T05:26:16;53.60;;;28.58;;
22320;SDS011;11328;53.928;18.522;2022-11-20T05:28:45;63.78;;;29.35;;
22320;SDS011;11328;53.928;18.522;2022-11-20T05:31:17;60.25;;;30.13;;
22320;SDS011;11328;53.928;18.522;2022-11-20T05:33:53;63.10;;;30.10;;
22320;SDS011;11328;53.928;18.522;2022-11-20T05:36:22;65.82;;;33.63;;
22320;SDS011;11328;53.928;18.522;2022-11-20T05:38:50;62.58;;;31.85;;
22320;SDS011;11328;53.928;18.522;2022-11-20T05:41:21;71.40;;;41.03;;
22320;SDS011;11328;53.928;18.522;2022-11-20T05:43:49;59.20;;;31.42;;
22320;SDS011;11328;53.928;18.522;2022-11-20T05:46:18;66.90;;;32.58;;
22320;SDS011;11328;53.928;18.522;2022-11-20T05:48:54;63.65;;;29.80;;
22320;SDS011;11328;53.928;18.522;2022-11-20T05:51:22;63.70;;;30.73;;
22320;SDS011;11328;53.928;18.522;2022-11-20T05:53:50;58.97;;;29.67;;
22320;SDS011;11328;53.928;18.522;2022-11-20T05:56:17;56.00;;;30.08;;
22320;SDS011;11328;53.928;18.522;2022-11-20T05:58:47;58.05;;;30.10;;
22320;SDS011;11328;53.928;18.522;2022-11-20T06:01:19;54.63;;;29.05;;
22320;SDS011;11328;53.928;18.522;2022-11-20T06:03:50;60.85;;;30.15;;
22320;SDS011;11328;53.928;18.522;2022-11-20T06:06:18;72.55;;;32.28;;
22320;SDS011;11328;53.928;18.522;2022-11-20T06:08:46;68.72;;;32.15;;
22320;SDS011;11328;53.928;18.522;2022-11-20T06:11:14;73.03;;;36.92;;
22320;SDS011;11328;53.928;18.522;2022-11-20T06:13:42;77.60;;;32.58;;
22320;SDS011;11328;53.928;18.522;2022-11-20T06:16:10;73.28;;;33.55;;
22320;SDS011;11328;53.928;18.522;2022-11-20T06:18:40;71.78;;;32.72;;
22320;SDS011;11328;53.928;18.522;2022-11-20T06:21:09;79.38;;;39.45;;
22320;SDS011;11328;53.928;18.522;2022-11-20T06:23:45;85.82;;;35.33;;
22320;SDS011;11328;53.928;18.522;2022-11-20T06:26:15;90.57;;;36.03;;
22320;SDS011;11328;53.928;18.522;2022-11-20T06:28:48;87.68;;;36.33;;
22320;SDS011;11328;53.928;18.522;2022-11-20T06:31:18;79.30;;;35.30;;
22320;SDS011;11328;53.928;18.522;2022-11-20T06:33:47;91.53;;;35.17;;
22320;SDS011;11328;53.928;18.522;2022-11-20T06:36:16;77.70;;;35.25;;
22320;SDS011;11328;53.928;18.522;2022-11-20T06:38:45;92.68;;;35.88;;
22320;SDS011;11328;53.928;18.522;2022-11-20T06:41:13;86.65;;;36.92;;
22320;SDS011;11328;53.928;18.522;2022-11-20T06:43:43;84.95;;;35.03;;
22320;SDS011;11328;53.928;18.522;2022-11-20T06:46:11;87.00;;;37.50;;
22320;SDS011;11328;53.928;18.522;2022-11-20T06:48:40;83.78;;;36.33;;
22320;SDS011;11328;53.928;18.522;2022-11-20T06:51:07;85.57;;;36.10;;
22320;SDS011;11328;53.928;18.522;2022-11-20T06:53:35;83.28;;;36.58;;
22320;SDS011;11328;53.928;18.522;2022-11-20T06:56:03;84.65;;;37.80;;
22320;SDS011;11328;53.928;18.522;2022-11-20T06:58:32;83.03;;;36.75;;
22320;SDS011;11328;53.928;18.522;2022-11-20T07:01:02;78.95;;;37.50;;
22320;SDS011;11328;53.928;18.522;2022-11-20T07:03:33;83.30;;;36.60;;
22320;SDS011;11328;53.928;18.522;2022-11-20T07:06:00;86.88;;;37.85;;
22320;SDS011;11328;53.928;18.522;2022-11-20T07:08:28;80.55;;;37.13;;
22320;SDS011;11328;53.928;18.522;2022-11-20T07:10:59;76.18;;;36.80;;
22320;SDS011;11328;53.928;18.522;2022-11-20T07:13:28;84.60;;;38.63;;
22320;SDS011;11328;53.928;18.522;2022-11-20T07:15:58;77.30;;;37.97;;
22320;SDS011;11328;53.928;18.522;2022-11-20T07:18:31;75.97;;;36.55;;
22320;SDS011;11328;53.928;18.522;2022-11-20T07:21:06;75.28;;;36.05;;
22320;SDS011;11328;53.928;18.522;2022-11-20T07:23:36;69.03;;;35.53;;
22320;SDS011;11328;53.928;18.522;2022-11-20T07:37:06;78.15;;;40.80;;
22320;SDS011;11328;53.928;18.522;2022-11-20T07:39:35;73.82;;;38.55;;
22320;SDS011;11328;53.928;18.522;2022-11-20T07:42:02;73.43;;;37.03;;
22320;SDS011;11328;53.928;18.522;2022-11-20T07:44:29;68.25;;;37.38;;
22320;SDS011;11328;53.928;18.522;2022-11-20T07:46:56;69.63;;;36.63;;
22320;SDS011;11328;53.928;18.522;2022-11-20T07:49:23;70.43;;;36.35;;
22320;SDS011;11328;53.928;18.522;2022-11-20T07:51:50;76.95;;;36.25;;
22320;SDS011;11328;53.928;18.522;2022-11-20T07:54:20;72.95;;;36.90;;
22320;SDS011;11328;53.928;18.522;2022-11-20T07:56:48;68.78;;;35.17;;
22320;SDS011;11328;53.928;18.522;2022-11-20T07:59:16;71.75;;;37.15;;
22320;SDS011;11328;53.928;18.522;2022-11-20T08:01:42;71.28;;;37.10;;
22320;SDS011;11328;53.928;18.522;2022-11-20T08:04:09;72.22;;;36.67;;
22320;SDS011;11328;53.928;18.522;2022-11-20T08:06:37;66.22;;;35.75;;
22320;SDS011;11328;53.928;18.522;2022-11-20T08:09:04;71.25;;;37.30;;
22320;SDS011;11328;53.928;18.522;2022-11-20T08:11:31;74.15;;;37.63;;
22320;SDS011;11328;53.928;18.522;2022-11-20T08:14:17;78.32;;;38.75;;
22320;SDS011;11328;53.928;18.522;2022-11-20T08:16:47;70.07;;;37.05;;
22320;SDS011;11328;53.928;18.522;2022-11-20T08:19:16;74.80;;;38.13;;
22320;SDS011;11328;53.928;18.522;2022-11-20T08:21:45;75.85;;;39.38;;
22320;SDS011;11328;53.928;18.522;2022-11-20T08:24:12;78.00;;;40.20;;
22320;SDS011;11328;53.928;18.522;2022-11-20T08:26:40;75.68;;;38.80;;
22320;SDS011;11328;53.928;18.522;2022-11-20T08:29:07;77.70;;;39.45;;
22320;SDS011;11328;53.928;18.522;2022-11-20T08:31:34;81.88;;;40.75;;
22320;SDS011;11328;53.928;18.522;2022-11-20T08:34:01;81.10;;;40.80;;
22320;SDS011;11328;53.928;18.522;2022-11-20T08:36:34;80.05;;;39.53;;
22320;SDS011;11328;53.928;18.522;2022-11-20T08:39:02;73.57;;;39.45;;
22320;SDS011;11328;53.928;18.522;2022-11-20T08:41:29;78.78;;;39.30;;
22320;SDS011;11328;53.928;18.522;2022-11-20T08:44:00;79.75;;;41.13;;
22320;SDS011;11328;53.928;18.522;2022-11-20T08:46:33;78.57;;;41.22;;
22320;SDS011;11328;53.928;18.522;2022-11-20T08:49:11;76.88;;;39.72;;
22320;SDS011;11328;53.928;18.522;2022-11-20T08:51:40;79.65;;;40.53;;
22320;SDS011;11328;53.928;18.522;2022-11-20T08:54:08;77.68;;;39.75;;
22320;SDS011;11328;53.928;18.522;2022-11-20T08:56:35;72.53;;;38.35;;
22320;SDS011;11328;53.928;18.522;2022-11-20T08:59:03;68.80;;;38.72;;
22320;SDS011;11328;53.928;18.522;2022-11-20T09:01:50;74.53;;;37.95;;
22320;SDS011;11328;53.928;18.522;2022-11-20T09:04:17;73.70;;;37.42;;
22320;SDS011;11328;53.928;18.522;2022-11-20T09:06:44;70.28;;;37.70;;
22320;SDS011;11328;53.928;18.522;2022-11-20T09:09:10;74.90;;;38.30;;
22320;SDS011;11328;53.928;18.522;2022-11-20T09:11:38;73.50;;;39.47;;
22320;SDS011;11328;53.928;18.522;2022-11-20T09:14:07;79.82;;;39.40;;
22320;SDS011;11328;53.928;18.522;2022-11-20T09:16:34;77.82;;;39.72;;
22320;SDS011;11328;53.928;18.522;2022-11-20T09:19:02;73.75;;;38.78;;
22320;SDS011;11328;53.928;18.522;2022-11-20T09:21:49;75.63;;;39.78;;
22320;SDS011;11328;53.928;18.522;2022-11-20T09:24:20;72.70;;;39.50;;
22320;SDS011;11328;53.928;18.522;2022-11-20T09:26:47;79.93;;;42.22;;
22320;SDS011;11328;53.928;18.522;2022-11-20T09:29:14;76.90;;;40.17;;
22320;SDS011;11328;53.928;18.522;2022-11-20T09:31:41;80.03;;;41.20;;
22320;SDS011;11328;53.928;18.522;2022-11-20T09:34:08;75.63;;;40.47;;
22320;SDS011;11328;53.928;18.522;2022-11-20T09:36:36;75.20;;;40.35;;
22320;SDS011;11328;53.928;18.522;2022-11-20T09:39:03;68.95;;;38.58;;
22320;SDS011;11328;53.928;18.522;2022-11-20T09:55:51;72.32;;;40.00;;
22320;SDS011;11328;53.928;18.522;2022-11-20T09:58:24;73.57;;;40.50;;
22320;SDS011;11328;53.928;18.522;2022-11-20T10:01:16;67.45;;;38.17;;
22320;SDS011;11328;53.928;18.522;2022-11-20T10:06:40;68.38;;;39.15;;
22320;SDS011;11328;53.928;18.522;2022-11-20T10:09:58;67.15;;;36.78;;
22320;SDS011;11328;53.928;18.522;2022-11-20T10:12:47;78.93;;;41.40;;
22320;SDS011;11328;53.928;18.522;2022-11-20T10:15:57;79.82;;;42.60;;
22320;SDS011;11328;53.928;18.522;2022-11-20T10:29:36;71.65;;;39.50;;
22320;SDS011;11328;53.928;18.522;2022-11-20T10:32:11;74.50;;;40.58;;
22320;SDS011;11328;53.928;18.522;2022-11-20T10:34:58;121.65;;;59.10;;
22320;SDS011;11328;53.928;18.522;2022-11-20T10:38:09;81.72;;;42.55;;
22320;SDS011;11328;53.928;18.522;2022-11-20T10:40:53;80.50;;;42.35;;
22320;SDS011;11328;53.928;18.522;2022-11-20T10:43:46;80.95;;;43.00;;
22320;SDS011;11328;53.928;18.522;2022-11-20T10:46:18;73.60;;;40.13;;
22320;SDS011;11328;53.928;18.522;2022-11-20T10:48:48;75.63;;;39.72;;
22320;SDS011;11328;53.928;18.522;2022-11-20T10:54:31;82.35;;;44.45;;
22320;SDS011;11328;53.928;18.522;2022-11-20T10:57:18;77.82;;;42.03;;
22320;SDS011;11328;53.928;18.522;2022-11-20T11:00:06;82.68;;;42.90;;
22320;SDS011;11328;53.928;18.522;2022-11-20T11:05:33;77.60;;;39.72;;
22320;SDS011;11328;53.928;18.522;2022-11-20T11:08:12;78.88;;;43.55;;
22320;SDS011;11328;53.928;18.522;2022-11-20T11:13:24;91.78;;;52.95;;
22320;SDS011;11328;53.928;18.522;2022-11-20T11:15:54;95.90;;;55.92;;
22320;SDS011;11328;53.928;18.522;2022-11-20T11:18:23;182.48;;;96.68;;
22320;SDS011;11328;53.928;18.522;2022-11-20T11:20:55;135.60;;;74.65;;
22320;SDS011;11328;53.928;18.522;2022-11-20T11:23:30;72.75;;;42.38;;
22320;SDS011;11328;53.928;18.522;2022-11-20T11:26:06;77.28;;;42.35;;
22320;SDS011;11328;53.928;18.522;2022-11-20T11:28:59;79.32;;;45.63;;
22320;SDS011;11328;53.928;18.522;2022-11-20T11:31:30;86.45;;;47.78;;
22320;SDS011;11328;53.928;18.522;2022-11-20T11:34:18;87.20;;;48.80;;
22320;SDS011;11328;53.928;18.522;2022-11-20T11:36:56;92.85;;;51.92;;
22320;SDS011;11328;53.928;18.522;2022-11-20T11:39:26;104.97;;;55.40;;
22320;SDS011;11328;53.928;18.522;2022-11-20T11:41:57;86.05;;;46.70;;
22320;SDS011;11328;53.928;18.522;2022-11-20T11:44:30;83.50;;;47.95;;
22320;SDS011;11328;53.928;18.522;2022-11-20T11:47:23;57.30;;;33.00;;
22320;SDS011;11328;53.928;18.522;2022-11-20T11:55:43;49.28;;;28.50;;
22320;SDS011;11328;53.928;18.522;2022-11-20T12:01:34;49.63;;;29.02;;
22320;SDS011;11328;53.928;18.522;2022-11-20T12:04:19;44.70;;;26.63;;
22320;SDS011;11328;53.928;18.522;2022-11-20T12:07:20;41.85;;;25.58;;
22320;SDS011;11328;53.928;18.522;2022-11-20T12:10:15;41.00;;;25.85;;
22320;SDS011;11328;53.928;18.522;2022-11-20T12:12:53;39.90;;;25.08;;
22320;SDS011;11328;53.928;18.522;2022-11-20T12:15:29;42.95;;;26.40;;
22320;SDS011;11328;53.928;18.522;2022-11-20T12:17:59;45.30;;;26.60;;
22320;SDS011;11328;53.928;18.522;2022-11-20T12:20:32;42.88;;;25.88;;
22320;SDS011;11328;53.928;18.522;2022-11-20T12:23:18;42.35;;;25.77;;
22320;SDS011;11328;53.928;18.522;2022-11-20T12:26:06;46.10;;;28.25;;
22320;SDS011;11328;53.928;18.522;2022-11-20T12:38:01;37.25;;;23.38;;
22320;SDS011;11328;53.928;18.522;2022-11-20T12:50:17;40.92;;;25.08;;
22320;SDS011;11328;53.928;18.522;2022-11-20T12:54:03;38.53;;;23.77;;
22320;SDS011;11328;53.928;18.522;2022-11-20T12:57:15;34.60;;;22.30;;
22320;SDS011;11328;53.928;18.522;2022-11-20T13:00:19;37.17;;;22.52;;
22320;SDS011;11328;53.928;18.522;2022-11-20T13:05:24;39.17;;;22.73;;
22320;SDS011;11328;53.928;18.522;2022-11-20T13:08:03;38.78;;;23.10;;
22320;SDS011;11328;53.928;18.522;2022-11-20T13:14:03;55.53;;;32.10;;
22320;SDS011;11328;53.928;18.522;2022-11-20T13:16:57;66.65;;;37.10;;
22320;SDS011;11328;53.928;18.522;2022-11-20T13:19:46;73.97;;;40.67;;
22320;SDS011;11328;53.928;18.522;2022-11-20T13:22:28;76.40;;;42.85;;
22320;SDS011;11328;53.928;18.522;2022-11-20T13:25:10;72.45;;;36.95;;
22320;SDS011;11328;53.928;18.522;2022-11-20T13:30:35;68.70;;;37.17;;
22320;SDS011;11328;53.928;18.522;2022-11-20T13:33:25;72.05;;;39.88;;
22320;SDS011;11328;53.928;18.522;2022-11-20T13:36:07;69.78;;;38.38;;
22320;SDS011;11328;53.928;18.522;2022-11-20T13:38:50;64.50;;;36.85;;
22320;SDS011;11328;53.928;18.522;2022-11-20T13:41:32;73.53;;;40.60;;
22320;SDS011;11328;53.928;18.522;2022-11-20T13:44:06;69.07;;;38.72;;
22320;SDS011;11328;53.928;18.522;2022-11-20T13:46:52;73.60;;;39.08;;
22320;SDS011;11328;53.928;18.522;2022-11-20T14:03:44;76.35;;;43.38;;
22320;SDS011;11328;53.928;18.522;2022-11-20T14:06:32;124.65;;;71.28;;
22320;SDS011;11328;53.928;18.522;2022-11-20T14:09:11;99.28;;;57.88;;
22320;SDS011;11328;53.928;18.522;2022-11-20T14:11:51;85.72;;;49.25;;
22320;SDS011;11328;53.928;18.522;2022-11-20T14:14:19;83.07;;;45.95;;
22320;SDS011;11328;53.928;18.522;2022-11-20T14:16:50;84.93;;;46.70;;
22320;SDS011;11328;53.928;18.522;2022-11-20T14:22:17;87.50;;;47.22;;
22320;SDS011;11328;53.928;18.522;2022-11-20T14:25:00;85.10;;;45.67;;
22320;SDS011;11328;53.928;18.522;2022-11-20T14:27:28;85.57;;;48.58;;
22320;SDS011;11328;53.928;18.522;2022-11-20T14:29:55;85.28;;;47.25;;
22320;SDS011;11328;53.928;18.522;2022-11-20T14:32:24;92.35;;;49.38;;
22320;SDS011;11328;53.928;18.522;2022-11-20T14:34:55;90.45;;;48.28;;
22320;SDS011;11328;53.928;18.522;2022-11-20T14:37:33;90.90;;;48.92;;
22320;SDS011;11328;53.928;18.522;2022-11-20T14:40:20;94.50;;;50.17;;
22320;SDS011;11328;53.928;18.522;2022-11-20T14:43:02;94.40;;;49.03;;
22320;SDS011;11328;53.928;18.522;2022-11-20T14:45:57;88.80;;;49.22;;
22320;SDS011;11328;53.928;18.522;2022-11-20T14:48:39;92.85;;;50.03;;
22320;SDS011;11328;53.928;18.522;2022-11-20T14:51:24;91.68;;;48.13;;
22320;SDS011;11328;53.928;18.522;2022-11-20T14:54:10;91.03;;;47.67;;
22320;SDS011;11328;53.928;18.522;2022-11-20T14:56:41;96.75;;;49.67;;
22320;SDS011;11328;53.928;18.522;2022-11-20T14:59:24;96.55;;;50.70;;
22320;SDS011;11328;53.928;18.522;2022-11-20T15:01:54;93.45;;;50.88;;
22320;SDS011;11328;53.928;18.522;2022-11-20T15:04:29;99.13;;;51.40;;
22320;SDS011;11328;53.928;18.522;2022-11-20T15:06:57;95.78;;;50.30;;
22320;SDS011;11328;53.928;18.522;2022-11-20T15:09:26;98.07;;;52.05;;
22320;SDS011;11328;53.928;18.522;2022-11-20T15:11:54;98.20;;;51.53;;
22320;SDS011;11328;53.928;18.522;2022-11-20T15:14:27;94.60;;;50.38;;
22320;SDS011;11328;53.928;18.522;2022-11-20T15:16:58;90.55;;;48.53;;
22320;SDS011;11328;53.928;18.522;2022-11-20T15:19:28;91.10;;;48.97;;
22320;SDS011;11328;53.928;18.522;2022-11-20T15:21:56;92.03;;;50.97;;
22320;SDS011;11328;53.928;18.522;2022-11-20T15:24:23;94.50;;;51.38;;
22320;SDS011;11328;53.928;18.522;2022-11-20T15:26:51;98.35;;;51.78;;
22320;SDS011;11328;53.928;18.522;2022-11-20T15:29:18;98.65;;;51.70;;
22320;SDS011;11328;53.928;18.522;2022-11-20T15:31:47;100.80;;;50.95;;
22320;SDS011;11328;53.928;18.522;2022-11-20T15:34:17;101.45;;;53.58;;
22320;SDS011;11328;53.928;18.522;2022-11-20T15:36:45;100.78;;;51.17;;
22320;SDS011;11328;53.928;18.522;2022-11-20T15:39:12;97.88;;;50.13;;
22320;SDS011;11328;53.928;18.522;2022-11-20T15:41:39;100.55;;;51.10;;
22320;SDS011;11328;53.928;18.522;2022-11-20T15:44:08;97.97;;;51.00;;
22320;SDS011;11328;53.928;18.522;2022-11-20T15:46:37;93.90;;;50.95;;
22320;SDS011;11328;53.928;18.522;2022-11-20T15:49:12;91.32;;;50.03;;
22320;SDS011;11328;53.928;18.522;2022-11-20T15:51:46;96.78;;;50.80;;
22320;SDS011;11328;53.928;18.522;2022-11-20T15:54:19;91.70;;;50.30;;
22320;SDS011;11328;53.928;18.522;2022-11-20T15:56:49;94.32;;;50.10;;
22320;SDS011;11328;53.928;18.522;2022-11-20T15:59:19;100.05;;;49.85;;
22320;SDS011;11328;53.928;18.522;2022-11-20T16:01:47;94.80;;;49.78;;
22320;SDS011;11328;53.928;18.522;2022-11-20T16:04:14;96.28;;;50.15;;
22320;SDS011;11328;53.928;18.522;2022-11-20T16:06:42;90.28;;;49.28;;
22320;SDS011;11328;53.928;18.522;2022-11-20T16:09:10;99.68;;;50.55;;
22320;SDS011;11328;53.928;18.522;2022-11-20T16:11:37;95.38;;;50.28;;
22320;SDS011;11328;53.928;18.522;2022-11-20T16:14:05;93.93;;;49.70;;
22320;SDS011;11328;53.928;18.522;2022-11-20T16:16:51;94.13;;;49.35;;
22320;SDS011;11328;53.928;18.522;2022-11-20T16:19:18;93.10;;;48.47;;
22320;SDS011;11328;53.928;18.522;2022-11-20T16:21:46;91.35;;;49.50;;
22320;SDS011;11328;53.928;18.522;2022-11-20T16:24:13;92.57;;;48.50;;
22320;SDS011;11328;53.928;18.522;2022-11-20T16:26:42;94.43;;;49.13;;
22320;SDS011;11328;53.928;18.522;2022-11-20T16:29:08;91.00;;;48.05;;
22320;SDS011;11328;53.928;18.522;2022-11-20T16:31:37;87.38;;;48.03;;
22320;SDS011;11328;53.928;18.522;2022-11-20T16:34:05;87.18;;;47.38;;
22320;SDS011;11328;53.928;18.522;2022-11-20T16:36:41;87.13;;;47.42;;
22320;SDS011;11328;53.928;18.522;2022-11-20T16:39:11;89.78;;;48.40;;
22320;SDS011;11328;53.928;18.522;2022-11-20T16:41:40;92.28;;;49.03;;
22320;SDS011;11328;53.928;18.522;2022-11-20T16:44:08;93.07;;;49.35;;
22320;SDS011;11328;53.928;18.522;2022-11-20T16:46:37;88.93;;;47.75;;
22320;SDS011;11328;53.928;18.522;2022-11-20T16:49:08;89.85;;;48.17;;